Tiempo atmosférico en la estación meteorológica de Montehermoso, Cáceres (351 m.)



Fecha
DESCASC
Temp. máxima en grados centígrados (hora)
DESCASC
Temp. mínima en grados centígrados (hora)
DESCASC
Temp. media en grados centígrados
DESCASC
Racha de viento máxima en m/sg (hora)
DESCASC
Velocidad máxima media en intervalos de 10 minutos(hora)
DESCASC
Precipitaciones diarias en mm
DESCASC
Precipitaciones de 00:00 a 06:00 en mm
DESCASC
Precipitaciones de 06:00 a 12:00 en mm
DESCASC
Precipitaciones de 12:00 a 18:00 en mm
DESCASC
Precipitaciones de 18:00 a 24:00 en mm
DESCASC
20-09-2020 25.2 (18:00) 16.6 (08:30) 20.9 7.22 (16:30) 4.17 (17:20) 1 0.2 0.2 0.6 0
19-09-2020 20.5 (15:30) 16.1 (07:20) 18.3 12.5 (02:30) 7.22 (02:40) 9 7.2 0.2 0.2 1.4
18-09-2020 23.3 (13:30) 14.3 (07:10) 18.8 11.11 (14:40) 6.39 (14:40) 11.4 1 0.2 1.4 8.8
17-09-2020 24.6 (11:50) 16.7 (00:00) 20.7 10.28 (13:40) 6.67 (13:40) 2.8 0 0 2.8 0
16-09-2020 30.8 (16:20) 13.8 (00:00) 22.3 7.5 (14:30) 4.44 (14:30) 0 0 0 0 0
15-09-2020 30 (17:10) 15.6 (00:00) 22.8 6.94 (16:40) 3.61 (16:40) 0 0 0 0 0
14-09-2020 31.7 (17:00) 19.3 (00:00) 25.5 8.61 (16:30) 4.72 (13:50) 0 0 0 0 0
13-09-2020 35.8 (16:50) 21.5 (00:00) 28.6 8.89 (12:40) 5.83 (13:40) 0 0 0 0 0
12-09-2020 36.2 (18:30) 16.5 (00:00) 26.4 8.06 (13:00) 4.72 (14:20) 0 0 0 0 0
11-09-2020 34.7 (17:40) 17.6 (00:00) 26.2 8.06 (13:10) 4.44 (12:50) 0 0 0 0 0
10-09-2020 33.7 (17:40) 13.1 (00:00) 23.4 7.22 (11:00) 3.89 (16:10) 0 0 0 0 0
09-09-2020 31.9 (17:00) 13.6 (00:00) 22.8 7.5 (11:30) 4.17 (11:40) 0 0 0 0 0
08-09-2020 30.3 (17:50) 14.7 (00:00) 22.5 9.72 (12:50) 5.28 (12:20) 0 0 0 0 0
07-09-2020 32.7 (16:40) 18.9 (08:20) 25.8 11.67 (05:00) 6.11 (04:30) 0 0 0 0 0
06-09-2020 35.2 (17:20) 19.5 (00:00) 27.4 7.22 (23:40) 4.44 (18:00) 0 0 0 0 0
05-09-2020 35.9 (17:10) 18.1 (00:00) 27 6.11 (10:00) 3.61 (10:00) 0 0 0 0 0
04-09-2020 35.9 (18:20) 16.2 (00:00) 26.1 8.61 (11:20) 6.11 (11:20) 0 0 0 0 0
03-09-2020 35.5 (18:10) 15.3 (00:00) 25.4 6.39 (13:00) 3.89 (14:00) 0 0 0 0 0
02-09-2020 33.6 (18:10) 15.8 (00:00) 24.7 7.22 (16:00) 3.61 (16:00) 0 0 0 0 0
01-09-2020 31.1 (16:40) 14.2 (00:00) 22.7 7.78 (16:10) 4.72 (15:40) 0 0 0 0 0
31-08-2020 28.9 (16:50) 13.7 (00:00) 21.3 7.78 (11:30) 4.72 (11:30) 0 0 0 0 0
30-08-2020 27.4 (17:40) 14.7 (00:00) 21 11.11 (01:40) 5.56 (01:50) 0 0 0 0 0
29-08-2020 27.8 (17:30) 14.6 (00:00) 21.2 13.89 (00:20) 8.61 (00:20) 0 0 0 0 0
28-08-2020 31.6 (17:50) 19.2 (00:00) 25.4 12.22 (22:20) 6.94 (22:20) 0 0 0 0 0
27-08-2020 37.7 (17:50) 19.1 (00:00) 28.4 9.72 (21:00) 6.67 (21:20) 0 0 0 0 0
26-08-2020 37.6 (18:10) 17.8 (00:00) 27.7 6.94 (16:00) 4.44 (16:00) 0 0 0 0 0
25-08-2020 37.4 (18:20) 17.4 (00:00) 27.4 8.61 (16:40) 4.44 (16:30) 0 0 0 0 0
24-08-2020 37.1 (18:30) 20.1 (00:00) 28.6 8.61 (02:20) 4.44 (02:20) 0 0 0 0 0

Gráficas

Temp. máximas Temp. mínimas Temp. medias Precipitaciones Rachas de viento máximas Velocidades máximas media en intervalos de 10 minutos

Datos horarios

Fecha y hora oficial Temperatura (ºC) Velocidad del viento (km/h) Dirección del viento Racha (km/h) Dirección de racha Precipitación (mm) Presión (hPa) Tendencia (hPa) Humedad (%)
2020-09-22 23:00:00 21.2 10 Oeste 20 Oeste 0 -- -- 65
2020-09-22 22:00:00 21.8 14 Oeste 22 Oeste 0 -- -- 62
2020-09-22 21:00:00 21.6 4 Oeste 6 Oeste 0 -- -- 63
2020-09-22 20:00:00 24.1 4 Sudoeste 16 Oeste 0 -- -- 53
2020-09-22 19:00:00 25.3 10 Oeste 22 Oeste 0 -- -- 48
2020-09-22 18:00:00 25.6 8 Sudoeste 21 Sudoeste 0 -- -- 48
2020-09-22 17:00:00 25.4 12 Sudoeste 23 Sur 0 -- -- 48
2020-09-22 16:00:00 25.3 10 Sudoeste 24 Oeste 0 -- -- 49
2020-09-22 15:00:00 24.4 10 Sudoeste 23 Sur 0 -- -- 51
2020-09-22 14:00:00 23.9 9 Sudeste 18 Sudeste 0 -- -- 53
2020-09-22 13:00:00 22.6 8 Sudeste 14 Sudeste 0 -- -- 58
2020-09-22 12:00:00 19.9 8 Sudeste 13 Sur 0 -- -- 70
2020-09-22 11:00:00 18.1 7 Sudeste 10 Sudeste 0 -- -- 75
2020-09-22 10:00:00 15.4 0 Calma 3 Sudeste 0 -- -- 84
2020-09-22 09:00:00 12.7 2 Noroeste 5 Oeste 0 -- -- 93
2020-09-22 08:00:00 12.1 3 Oeste 5 Oeste 0 -- -- 93
2020-09-22 07:00:00 12.4 0 Calma 5 Sur 0 -- -- 92
2020-09-22 06:00:00 13 3 Noroeste 5 Oeste 0 -- -- 89
2020-09-22 05:00:00 13.1 2 Noroeste 5 Oeste 0 -- -- 90
2020-09-22 04:00:00 13.3 2 Norte 5 Oeste 0 -- -- 90
2020-09-22 03:00:00 14.1 3 Noroeste 5 Noroeste 0 -- -- 86
2020-09-22 02:00:00 14.2 3 Noroeste 4 Oeste 0 -- -- 86
2020-09-22 01:00:00 15.2 2 Norte 4 Noroeste 0 -- -- 81
2020-09-22 00:00:00 16.9 2 Sudeste 8 Sur 0 -- -- 69
2020-09-21 23:00:00 18.7 5 Noroeste 10 Noroeste 0 -- -- 63
2020-09-21 22:00:00 19.4 7 Noroeste 10 Noroeste 0 -- -- 60
2020-09-21 21:00:00 20 4 Noroeste 8 Noroeste 0 -- -- 65
2020-09-21 20:00:00 23.8 4 Sudoeste 16 Oeste 0 -- -- 47
2020-09-21 19:00:00 25.2 12 Oeste 18 Noroeste 0 -- -- 42
2020-09-21 18:00:00 25 13 Noroeste 26 Oeste 0 -- -- 42
2020-09-21 17:00:00 25.2 9 Noroeste 21 Noroeste 0 -- -- 40
2020-09-21 16:00:00 24.6 7 Oeste 18 Noroeste 0 -- -- 43
2020-09-21 15:00:00 23.8 9 Oeste 18 Oeste 0 -- -- 47
2020-09-21 14:00:00 22.9 8 Sur 17 Sur 0 -- -- 52
2020-09-21 13:00:00 21.8 8 Sudeste 15 Sudeste 0 -- -- 56
2020-09-21 12:00:00 19.6 3 Sudoeste 8 Sudeste 0 -- -- 61
2020-09-21 11:00:00 17.5 3 Sur 8 Sudeste 0 -- -- 72
2020-09-21 10:00:00 14.9 3 Este 8 Este 0 -- -- 85
2020-09-21 09:00:00 12 2 Norte 5 Oeste 0 -- -- 94
2020-09-21 08:00:00 12.1 4 Oeste 6 Oeste 0 -- -- 91
2020-09-21 07:00:00 12.2 3 Noroeste 5 Oeste 0 -- -- 92
2020-09-21 06:00:00 12.8 4 Norte 8 Oeste 0 -- -- 89
2020-09-21 05:00:00 13.3 5 Oeste 8 Norte 0 -- -- 87
2020-09-21 04:00:00 13.6 4 Oeste 6 Oeste 0 -- -- 86
2020-09-21 03:00:00 14.9 3 Noroeste 6 Norte 0 -- -- 81
2020-09-21 02:00:00 14.8 3 Norte 8 Norte 0 -- -- 85
2020-09-21 01:00:00 15.7 3 Noroeste 6 Sudeste 0 -- -- 83
2020-09-21 00:00:00 17.3 0 Calma 11 Norte 0 -- -- 75
2020-09-20 23:00:00 19.3 9 Noroeste 14 Noroeste 0 -- -- 67
2020-09-20 22:00:00 19.9 7 Noroeste 15 Noroeste 0 -- -- 66
2020-09-20 21:00:00 21.1 8 Noroeste 17 Oeste 0 -- -- 59
2020-09-20 20:00:00 23.3 8 Oeste 25 Sudoeste 0 -- -- 54
2020-09-20 19:00:00 24.8 14 Oeste 25 Oeste 0 -- -- 48
2020-09-20 18:00:00 25.2 12 Oeste 25 Sudoeste 0 -- -- 49
2020-09-20 17:00:00 24.3 7 Oeste 26 Oeste 0 -- -- 59
2020-09-20 16:00:00 23.7 10 Sudoeste 22 Oeste 0 -- -- 64
2020-09-20 15:00:00 22.3 10 Oeste 23 Sudoeste 0 -- -- 70
2020-09-20 14:00:00 20.1 9 Sudoeste 19 Sudoeste 0.6 -- -- 85
2020-09-20 13:00:00 19 6 Sudoeste 18 Oeste 0 -- -- 86
2020-09-20 12:00:00 17.5 9 Sudoeste 19 Sur 0.2 -- -- 93
2020-09-20 11:00:00 17.8 5 Sudoeste 16 Sudoeste 0 -- -- 90
2020-09-20 10:00:00 17.4 6 Sudoeste 12 Sudoeste 0 -- -- 94
2020-09-20 09:00:00 16.7 2 Sudoeste 13 Sur 0 -- -- 96
2020-09-20 08:00:00 16.8 10 Sur 19 Sur 0 -- -- 96
2020-09-20 07:00:00 16.8 4 Sur 11 Sur 0 -- -- 97
2020-09-20 06:00:00 16.7 8 Sur 15 Sur 0 -- -- 96
2020-09-20 05:00:00 16.8 3 Sudeste 5 Sudeste 0.2 -- -- 96
2020-09-20 04:00:00 17 2 Sudeste 4 Sudoeste 0 -- -- 96
2020-09-20 03:00:00 16.9 0 Calma 3 Sur 0 -- -- 96
2020-09-20 02:00:00 16.9 0 Calma 3 Nordeste 0 -- -- 95
2020-09-20 01:00:00 16.8 0 Calma 4 Norte 0 -- -- 96
2020-09-20 00:00:00 16.7 0 Calma 4 Nordeste 0 -- -- 95
2020-09-19 23:00:00 16.6 0 Calma 6 Nordeste 0 -- -- 95
2020-09-19 22:00:00 16.7 2 Norte 10 Norte 0.2 -- -- 94
2020-09-19 21:00:00 17.4 9 Noroeste 18 Noroeste 1 -- -- 92
2020-09-19 20:00:00 18.1 4 Nordeste 9 Nordeste 0 -- -- 87
2020-09-19 19:00:00 17.8 4 Norte 17 Noroeste 0.2 -- -- 87
2020-09-19 18:00:00 18.1 11 Noroeste 21 Noroeste 0 -- -- 85
2020-09-19 17:00:00 20.1 6 Noroeste 16 Oeste 0 -- -- 70
2020-09-19 16:00:00 20.1 9 Oeste 21 Oeste 0 -- -- 70
2020-09-19 15:00:00 20.2 13 Oeste 28 Oeste 0 -- -- 72
2020-09-19 14:00:00 19.1 15 Oeste 27 Sudoeste 0 -- -- 76
2020-09-19 13:00:00 18.7 12 Sudoeste 26 Sudoeste 0.2 -- -- 85
2020-09-19 12:00:00 18.2 12 Sudoeste 22 Sudoeste 0 -- -- 90
2020-09-19 11:00:00 17.3 12 Oeste 22 Sudoeste 0.2 -- -- 93
2020-09-19 10:00:00 16.6 9 Sudoeste 24 Oeste 0 -- -- 95
2020-09-19 09:00:00 16.5 9 Sudoeste 17 Sur 0 -- -- 95
2020-09-19 08:00:00 16.3 5 Sudoeste 18 Sudoeste 0 -- -- 95
2020-09-19 07:00:00 16.2 10 Sudoeste 20 Sudoeste 0 -- -- 95
2020-09-19 06:00:00 16.3 10 Sudoeste 24 Sudoeste 0 -- -- 95
2020-09-19 05:00:00 16.5 13 Sudoeste 31 Sudoeste 0 -- -- 95
2020-09-19 04:00:00 16.6 14 Sur 35 Sur 0 -- -- 94
2020-09-19 03:00:00 16.7 23 Sur 45 Sur 2 -- -- 94
2020-09-19 02:00:00 16.4 16 Sur 26 Sudeste 4.8 -- -- 96
2020-09-19 01:00:00 17.1 16 Sur 29 Sudoeste 0.4 -- -- 92
2020-09-19 00:00:00 17 13 Sur 26 Sur 0.2 -- -- 94
2020-09-18 23:00:00 16.5 8 Sudeste 18 Sudeste 0 -- -- 95
2020-09-18 22:00:00 16.3 8 Sudeste 23 Sudeste 1 -- -- 95
2020-09-18 21:00:00 16.2 9 Sur 31 Este 6.2 -- -- 93
2020-09-18 20:00:00 17.1 13 Sudeste 37 Sudeste 0.8 -- -- 91
2020-09-18 19:00:00 18.9 13 Sudeste 31 Sudeste 0.6 -- -- 83
2020-09-18 18:00:00 20.7 15 Sudeste 31 Sudeste 0 -- -- 73
2020-09-18 17:00:00 19.4 16 Sudeste 28 Sudeste 0 -- -- 76
2020-09-18 16:00:00 18.3 10 Sudeste 34 Sudeste 0.2 -- -- 84
2020-09-18 15:00:00 18.9 11 Sudeste 40 Sudeste 1.2 -- -- 82
2020-09-18 14:00:00 22.5 15 Sudeste 32 Sudeste 0 -- -- 60
2020-09-18 13:00:00 22.3 18 Sudeste 31 Sudeste 0 -- -- 62
2020-09-18 12:00:00 20.1 19 Sudeste 30 Sudeste 0.2 -- -- 73
2020-09-18 11:00:00 18.4 14 Sudeste 25 Sudeste 0 -- -- 87
2020-09-18 10:00:00 16.5 9 Sudeste 18 Sudeste 0 -- -- 95
2020-09-18 09:00:00 14.9 2 Sudeste 4 Sur 0 -- -- 97
2020-09-18 08:00:00 14.8 3 Sudeste 7 Sudeste 0 -- -- 96
2020-09-18 07:00:00 14.4 0 Calma 5 Noroeste 0 -- -- 94
2020-09-18 06:00:00 15.7 0 Calma 11 Sur 0 -- -- 93
2020-09-18 05:00:00 17.1 0 Calma 8 Sur 1 -- -- 94
2020-09-18 04:00:00 17.1 3 Sudeste 13 Sudeste 0 -- -- 93
2020-09-18 03:00:00 17.2 3 Oeste 7 Nordeste 0 -- -- 92
2020-09-18 02:00:00 17 2 Nordeste 6 Nordeste 0 -- -- 92
2020-09-18 01:00:00 16.6 4 Nordeste 8 Nordeste 0 -- -- 93
2020-09-18 00:00:00 16.7 2 Sudeste 6 Sudeste 0 -- -- 90
2020-09-17 23:00:00 17.8 3 Noroeste 17 Oeste 0 -- -- 86
2020-09-17 22:00:00 17.8 13 Oeste 29 Oeste 0 -- -- 88
2020-09-17 21:00:00 19.3 9 Sudoeste 17 Sudoeste -- -- -- 80
2020-09-17 20:00:00 20 4 Norte 23 Noroeste 0 -- -- 71
2020-09-17 19:00:00 21.3 14 Oeste 30 Oeste 0 -- -- 68
2020-09-17 18:00:00 23.6 8 Este 22 Sudeste 0 -- -- 69
2020-09-17 17:00:00 22.5 13 Sudeste 22 Sudeste 0 -- -- 77
2020-09-17 16:00:00 21.9 9 Sur 22 Sudeste 2.2 -- -- 81
2020-09-17 15:00:00 21.5 9 Sudeste 35 Sudeste 0.6 -- -- 83
2020-09-17 14:00:00 23.2 18 Sudeste 37 Sudeste 0 -- -- 62
2020-09-17 13:00:00 24.5 18 Sudeste 36 Sudeste 0 -- -- 56
2020-09-17 12:00:00 24.6 19 Sudeste 33 Sudeste 0 -- -- 57
2020-09-17 11:00:00 22.2 14 Sudeste 28 Sudeste 0 -- -- 64
2020-09-17 10:00:00 20.7 11 Sudeste 26 Sudeste 0 -- -- 71
2020-09-17 09:00:00 20.6 8 Sudeste 17 Sudeste 0 -- -- 71
2020-09-17 08:00:00 20.1 2 Sudeste 11 Sudeste 0 -- -- 67
2020-09-17 07:00:00 20.7 5 Este 8 Este 0 -- -- 62
2020-09-17 06:00:00 20.1 4 Este 8 Nordeste 0 -- -- 62
2020-09-17 05:00:00 19.2 5 Nordeste 12 Norte 0 -- -- 66
2020-09-17 04:00:00 17.7 3 Norte 5 Este 0 -- -- 70
2020-09-17 03:00:00 19 0 Calma 8 Sudeste 0 -- -- 65
2020-09-17 02:00:00 19.9 4 Nordeste 7 Nordeste 0 -- -- 61
2020-09-17 01:00:00 19.8 2 Este 7 Norte 0 -- -- 61
2020-09-17 00:00:00 20.9 4 Norte 6 Noroeste 0 -- -- 57
2020-09-16 23:00:00 23.8 4 Sudoeste 17 Sur 0 -- -- 50
2020-09-16 22:00:00 25.8 8 Noroeste 15 Noroeste 0 -- -- 43
2020-09-16 21:00:00 26.5 9 Noroeste 14 Noroeste 0 -- -- 43
2020-09-16 20:00:00 27.5 5 Oeste 9 Oeste 0 -- -- 41
2020-09-16 19:00:00 29.1 0 Calma 5 Sur 0 -- -- 39
2020-09-16 18:00:00 29.5 4 Sur 11 Sur 0 -- -- 37
2020-09-16 17:00:00 29.9 4 Sudoeste 18 Sudeste 0 -- -- 37
2020-09-16 16:00:00 29.9 6 Sur 21 Sur 0 -- -- 37
2020-09-16 15:00:00 29.4 13 Sudeste 27 Sudeste 0 -- -- 39
2020-09-16 14:00:00 28.7 8 Sur 18 Sudeste 0 -- -- 41
2020-09-16 13:00:00 27 8 Sudeste 16 Este 0 -- -- 45
2020-09-16 12:00:00 24.4 5 Este 12 Este 0 -- -- 48
2020-09-16 11:00:00 21.3 2 Sudeste 8 Este 0 -- -- 59
2020-09-16 10:00:00 18.6 3 Nordeste 6 Nordeste 0 -- -- 63
2020-09-16 09:00:00 14.9 2 Oeste 5 Oeste 0 -- -- 75
2020-09-16 08:00:00 14.3 3 Oeste 5 Sudeste 0 -- -- 75
2020-09-16 07:00:00 15.5 4 Noroeste 10 Oeste 0 -- -- 71
2020-09-16 06:00:00 15.2 4 Noroeste 6 Sudeste 0 -- -- 71
2020-09-16 05:00:00 16.1 0 Calma 4 Norte 0 -- -- 68
2020-09-16 04:00:00 17.2 3 Norte 6 Norte 0 -- -- 65
2020-09-16 03:00:00 17.3 3 Norte 5 Noroeste 0 -- -- 64
2020-09-16 02:00:00 17.7 4 Norte 5 Noroeste 0 -- -- 62
2020-09-16 01:00:00 18.1 3 Norte 6 Norte 0 -- -- 60
2020-09-16 00:00:00 19.8 5 Oeste 8 Oeste 0 -- -- 54
2020-09-15 23:00:00 22.3 7 Oeste 9 Oeste 0 -- -- 48
2020-09-15 22:00:00 23.1 7 Oeste 8 Oeste 0 -- -- 46
2020-09-15 21:00:00 25.7 5 Oeste 12 Sudoeste 0 -- -- 41
2020-09-15 20:00:00 28.4 4 Sudoeste 15 Sur 0 -- -- 37
2020-09-15 19:00:00 29.7 8 Sudoeste 18 Sudoeste 0 -- -- 35
2020-09-15 18:00:00 29.8 9 Sudoeste 22 Oeste 0 -- -- 35
2020-09-15 17:00:00 29.9 10 Sur 25 Sudeste 0 -- -- 37
2020-09-15 16:00:00 28.8 10 Sudoeste 23 Oeste 0 -- -- 41
2020-09-15 15:00:00 27.9 12 Sur 21 Sudeste 0 -- -- 44
2020-09-15 14:00:00 26.5 11 Sur 22 Sudoeste 0 -- -- 50
2020-09-15 13:00:00 25 9 Sur 19 Sur 0 -- -- 54
2020-09-15 12:00:00 23 6 Sudeste 12 Sudeste 0 -- -- 61
2020-09-15 11:00:00 20.6 3 Sudeste 7 Sudeste 0 -- -- 68
2020-09-15 10:00:00 17.6 3 Sudeste 6 Oeste 0 -- -- 75
2020-09-15 09:00:00 16.3 3 Oeste 5 Oeste 0 -- -- 79
2020-09-15 08:00:00 15.8 3 Oeste 6 Noroeste 0 -- -- 79
2020-09-15 07:00:00 16.5 2 Noroeste 5 Noroeste 0 -- -- 76
2020-09-15 06:00:00 17.8 0 Calma 2 Sudeste 0 -- -- 71
2020-09-15 05:00:00 18.7 3 Sur 5 Sudeste 0 -- -- 70
2020-09-15 04:00:00 19 4 Noroeste 12 Oeste 0 -- -- 67
2020-09-15 03:00:00 18.6 0 Calma 4 Oeste 0 -- -- 69
2020-09-15 02:00:00 19.3 2 Norte 4 Oeste 0 -- -- 67
2020-09-15 01:00:00 20.6 3 Noroeste 4 Noroeste 0 -- -- 62
2020-09-15 00:00:00 21.6 0 Calma 7 Oeste 0 -- -- 59
2020-09-14 23:00:00 23.4 4 Noroeste 8 Oeste 0 -- -- 55
2020-09-14 22:00:00 25.7 7 Oeste 17 Oeste 0 -- -- 48
2020-09-14 21:00:00 27.3 5 Oeste 24 Oeste 0 -- -- 41
2020-09-14 20:00:00 28.9 15 Oeste 28 Oeste 0 -- -- 38
2020-09-14 19:00:00 30.4 15 Oeste 29 Oeste 0 -- -- 38
2020-09-14 18:00:00 30.9 14 Sudoeste 27 Sudoeste 0 -- -- 37
2020-09-14 17:00:00 31.7 17 Sur 31 Sudoeste 0 -- -- 35
2020-09-14 16:00:00 30.3 10 Sudoeste 20 Oeste 0 -- -- 38
2020-09-14 15:00:00 30.4 9 Sur 22 Sur 0 -- -- 38
2020-09-14 14:00:00 29.5 12 Sur 26 Sur 0 -- -- 38
2020-09-14 13:00:00 27.7 13 Sudeste 24 Sudeste 0 -- -- 43
2020-09-14 12:00:00 26.2 12 Sudeste 20 Sudeste 0 -- -- 45
2020-09-14 11:00:00 24.8 8 Sudeste 14 Sudeste 0 -- -- 58
2020-09-14 10:00:00 22.5 7 Sudeste 10 Sudeste 0 -- -- 64
2020-09-14 09:00:00 19.3 2 Noroeste 4 Oeste 0 -- -- 68
2020-09-14 08:00:00 19.7 0 Calma 4 Noroeste 0 -- -- 65
2020-09-14 07:00:00 20.5 3 Norte 6 Sudeste 0 -- -- 62
2020-09-14 06:00:00 20.4 2 Oeste 4 Oeste 0 -- -- 61
2020-09-14 05:00:00 20.8 3 Oeste 5 Oeste 0 -- -- 57
2020-09-14 04:00:00 20.5 2 Norte 7 Sudoeste 0 -- -- 57
2020-09-14 03:00:00 21.6 4 Oeste 8 Oeste 0 -- -- 53
2020-09-14 02:00:00 23.3 3 Sur 14 Oeste 0 -- -- 46
2020-09-14 01:00:00 26.2 10 Oeste 24 Sudeste 0 -- -- 40
2020-09-14 00:00:00 25.8 6 Sudeste 21 Sudeste 0 -- -- 39
2020-09-13 23:00:00 25.1 3 Sudeste 11 Sudeste 0 -- -- 41
2020-09-13 22:00:00 25.5 4 Este 11 Este 0 -- -- 40
2020-09-13 21:00:00 28.7 6 Este 20 Sudeste 0 -- -- 35
2020-09-13 20:00:00 32.5 14 Sudeste 25 Este 0 -- -- 29
2020-09-13 19:00:00 34.6 11 Sudeste 25 Sudeste 0 -- -- 28
2020-09-13 18:00:00 33.6 13 Sudeste 28 Sudeste 0 -- -- 29
2020-09-13 17:00:00 35.2 15 Sudeste 30 Este 0 -- -- 26
2020-09-13 16:00:00 33.4 14 Sudeste 28 Sudeste 0 -- -- 30
2020-09-13 15:00:00 31.8 18 Sudeste 32 Sudeste 0 -- -- 32
2020-09-13 14:00:00 31.2 18 Sudeste 31 Sudeste 0 -- -- 34
2020-09-13 13:00:00 31 17 Sudeste 32 Sudeste 0 -- -- 34
2020-09-13 12:00:00 29.1 17 Sudeste 29 Sudeste 0 -- -- 38
2020-09-13 11:00:00 25.8 10 Sudeste 23 Sudeste 0 -- -- 44
2020-09-13 10:00:00 25.1 9 Sudeste 28 Sudeste 0 -- -- 43
2020-09-13 09:00:00 23.2 11 Sudeste 23 Sudeste 0 -- -- 43
2020-09-13 08:00:00 23 12 Sudeste 25 Este 0 -- -- 40
2020-09-13 07:00:00 23 13 Sudeste 29 Sudeste 0 -- -- 39
2020-09-13 06:00:00 22.7 7 Sudeste 15 Este 0 -- -- 39
2020-09-13 05:00:00 23 8 Este 12 Este 0 -- -- 36
2020-09-13 04:00:00 25.9 6 Nordeste 14 Norte 0 -- -- 30
2020-09-13 03:00:00 25.8 8 Norte 14 Norte 0 -- -- 31
2020-09-13 02:00:00 24.2 6 Norte 13 Norte 0 -- -- 37
2020-09-13 01:00:00 24.8 4 Este 12 Norte 0 -- -- 36
2020-09-13 00:00:00 23.1 3 Noroeste 6 Noroeste 0 -- -- 40
2020-09-12 23:00:00 24.6 2 Norte 12 Sudeste 0 -- -- 39
2020-09-12 22:00:00 25.7 4 Noroeste 5 Norte 0 -- -- 35
2020-09-12 21:00:00 28.4 4 Norte 5 Norte 0 -- -- 34
2020-09-12 20:00:00 33.9 0 Calma 12 Sudeste 0 -- -- 26
2020-09-12 19:00:00 35.8 6 Sudeste 14 Sudeste 0 -- -- 21
2020-09-12 18:00:00 35.3 5 Sur 12 Sudeste 0 -- -- 21
2020-09-12 17:00:00 33.8 6 Sudeste 11 Sudeste 0 -- -- 24
2020-09-12 16:00:00 34 8 Sudeste 22 Sur 0 -- -- 24
2020-09-12 15:00:00 34.7 12 Sudeste 27 Sur 0 -- -- 25
2020-09-12 14:00:00 33.2 16 Sudeste 26 Sudeste 0 -- -- 26
2020-09-12 13:00:00 32.5 16 Sudeste 29 Sur 0 -- -- 27
2020-09-12 12:00:00 29.9 13 Sudeste 22 Este 0 -- -- 32
2020-09-12 11:00:00 27.8 12 Sudeste 24 Sudeste 0 -- -- 33
2020-09-12 10:00:00 23.1 5 Nordeste 11 Este 0 -- -- 40
2020-09-12 09:00:00 19.6 4 Nordeste 9 Nordeste 0 -- -- 48
2020-09-12 08:00:00 16.6 3 Nordeste 8 Sudeste 0 -- -- 55
2020-09-12 07:00:00 17.8 4 Este 9 Este 0 -- -- 51
2020-09-12 06:00:00 17.3 0 Calma 3 Noroeste 0 -- -- 50
2020-09-12 05:00:00 18.6 2 Sudeste 6 Este 0 -- -- 46
2020-09-12 04:00:00 19.1 0 Calma 4 Sudeste 0 -- -- 45
2020-09-12 03:00:00 21.3 0 Calma 9 Sudeste 0 -- -- 41
2020-09-12 02:00:00 25 5 Norte 12 Norte 0 -- -- 32
2020-09-12 01:00:00 24.6 6 Norte 11 Norte 0 -- -- 34
2020-09-12 00:00:00 24.2 3 Norte 12 Nordeste 0 -- -- 36
2020-09-11 23:00:00 24.2 5 Oeste 6 Oeste 0 -- -- 35
2020-09-11 22:00:00 25.2 6 Oeste 7 Noroeste 0 -- -- 35
2020-09-11 21:00:00 28.1 4 Noroeste 7 Sudoeste 0 -- -- 32
2020-09-11 20:00:00 32.8 3 Sudoeste 13 Sudeste 0 -- -- 24
2020-09-11 19:00:00 34.6 6 Sudeste 13 Sudeste 0 -- -- 22
2020-09-11 18:00:00 33.6 8 Sudeste 17 Sur 0 -- -- 22
2020-09-11 17:00:00 33.2 11 Sur 19 Sur 0 -- -- 24
2020-09-11 16:00:00 34.3 10 Sur 20 Sur 0 -- -- 23
2020-09-11 15:00:00 33.3 9 Sur 18 Sur 0 -- -- 26
2020-09-11 14:00:00 32.2 12 Sudeste 29 Sudeste 0 -- -- 27
2020-09-11 13:00:00 31.2 14 Sudeste 24 Este 0 -- -- 29
2020-09-11 12:00:00 29 12 Sudeste 19 Sudeste 0 -- -- 32
2020-09-11 11:00:00 27.1 8 Este 16 Este 0 -- -- 33
2020-09-11 10:00:00 23.3 5 Nordeste 12 Este 0 -- -- 38
2020-09-11 09:00:00 19.9 3 Norte 9 Nordeste 0 -- -- 46
2020-09-11 08:00:00 18.1 6 Nordeste 9 Nordeste 0 -- -- 48
2020-09-11 07:00:00 17.9 6 Este 20 Sudeste 0 -- -- 49
2020-09-11 06:00:00 17.7 0 Calma 7 Este 0 -- -- 48
2020-09-11 05:00:00 19.5 4 Este 8 Nordeste 0 -- -- 45
2020-09-11 04:00:00 21.5 4 Este 10 Norte 0 -- -- 39
2020-09-11 03:00:00 24.1 5 Norte 14 Nordeste 0 -- -- 33
2020-09-11 02:00:00 24.9 6 Norte 14 Norte 0 -- -- 32
2020-09-11 01:00:00 24.5 7 Norte 13 Norte 0 -- -- 32
2020-09-11 00:00:00 25.3 8 Norte 13 Norte 0 -- -- 31
2020-09-10 23:00:00 25.4 7 Norte 12 Norte 0 -- -- 31
2020-09-10 22:00:00 25.4 5 Norte 11 Nordeste 0 -- -- 35
2020-09-10 21:00:00 28.1 2 Noroeste 9 Sur 0 -- -- 31
2020-09-10 20:00:00 31.9 9 Sur 18 Sur 0 -- -- 27
2020-09-10 19:00:00 33 10 Sudoeste 18 Noroeste 0 -- -- 24
2020-09-10 18:00:00 33.4 11 Sur 22 Sur 0 -- -- 24
2020-09-10 17:00:00 33.1 11 Sur 26 Oeste 0 -- -- 24
2020-09-10 16:00:00 32.8 13 Sur 22 Sudeste 0 -- -- 24
2020-09-10 15:00:00 31.7 12 Sur 21 Sur 0 -- -- 29
2020-09-10 14:00:00 30.5 10 Sur 19 Sudeste 0 -- -- 32
2020-09-10 13:00:00 29 12 Sudeste 18 Sudeste 0 -- -- 35
2020-09-10 12:00:00 27.3 9 Sudeste 21 Sudeste 0 -- -- 39
2020-09-10 11:00:00 26.4 13 Este 26 Este 0 -- -- 37
2020-09-10 10:00:00 22.7 4 Nordeste 9 Este 0 -- -- 40
2020-09-10 09:00:00 16.7 3 Nordeste 9 Norte 0 -- -- 53
2020-09-10 08:00:00 13.1 0 Calma 5 Oeste 0 -- -- 63
2020-09-10 07:00:00 13.9 0 Calma 4 Noroeste 0 -- -- 59
2020-09-10 06:00:00 15.4 4 Noroeste 6 Noroeste 0 -- -- 54
2020-09-10 05:00:00 16.5 5 Oeste 7 Oeste 0 -- -- 51
2020-09-10 04:00:00 17.3 5 Oeste 9 Oeste 0 -- -- 50
2020-09-10 03:00:00 17.8 2 Noroeste 8 Sur 0 -- -- 50
2020-09-10 02:00:00 19.5 4 Sudeste 7 Sur 0 -- -- 45
2020-09-10 01:00:00 19.9 0 Calma 6 Noroeste 0 -- -- 43
2020-09-10 00:00:00 20.6 4 Norte 6 Noroeste 0 -- -- 42
2020-09-09 23:00:00 23.1 5 Noroeste 9 Noroeste 0 -- -- 37
2020-09-09 22:00:00 23.5 5 Oeste 7 Oeste 0 -- -- 37
2020-09-09 21:00:00 26.3 6 Oeste 8 Sudoeste 0 -- -- 32
2020-09-09 20:00:00 30.4 6 Sudoeste 15 Sudeste 0 -- -- 27
2020-09-09 19:00:00 31.5 10 Sur 17 Sur 0 -- -- 26
2020-09-09 18:00:00 31.8 9 Sudeste 18 Sur 0 -- -- 25
2020-09-09 17:00:00 31.9 10 Sudeste 22 Sudeste 0 -- -- 25
2020-09-09 16:00:00 30.9 11 Sur 21 Sur 0 -- -- 26
2020-09-09 15:00:00 30.5 9 Sur 23 Sudeste 0 -- -- 27
2020-09-09 14:00:00 29.3 13 Sur 21 Sudeste 0 -- -- 31
2020-09-09 13:00:00 27.9 7 Sudeste 22 Sur 0 -- -- 33
2020-09-09 12:00:00 26.6 13 Sudeste 27 Este 0 -- -- 36
2020-09-09 11:00:00 23.7 13 Este 24 Sudeste 0 -- -- 42
2020-09-09 10:00:00 20 7 Sudeste 13 Sudeste 0 -- -- 48
2020-09-09 09:00:00 16.8 4 Sudeste 13 Sudeste 0 -- -- 56
2020-09-09 08:00:00 13.9 4 Nordeste 12 Nordeste 0 -- -- 67
2020-09-09 07:00:00 14.3 3 Norte 8 Norte 0 -- -- 66
2020-09-09 06:00:00 13.9 3 Noroeste 4 Noroeste 0 -- -- 61
2020-09-09 05:00:00 15.3 0 Calma 4 Noroeste 0 -- -- 57
2020-09-09 04:00:00 15.9 0 Calma 5 Oeste 0 -- -- 54
2020-09-09 03:00:00 16.6 3 Norte 6 Norte 0 -- -- 52
2020-09-09 02:00:00 17.7 3 Noroeste 7 Nordeste 0 -- -- 49
2020-09-09 01:00:00 18.4 2 Norte 4 Noroeste 0 -- -- 46
2020-09-09 00:00:00 20.1 3 Norte 8 Nordeste 0 -- -- 41
2020-09-08 23:00:00 20.5 5 Norte 8 Nordeste 0 -- -- 42
2020-09-08 22:00:00 21.6 3 Noroeste 9 Este 0 -- -- 42
2020-09-08 21:00:00 24.8 3 Este 13 Sudeste 0 -- -- 39
2020-09-08 20:00:00 28 9 Sudeste 18 Este 0 -- -- 34
2020-09-08 19:00:00 29 12 Sudeste 26 Sudeste 0 -- -- 31
2020-09-08 18:00:00 30 10 Sudeste 23 Sur 0 -- -- 29
2020-09-08 17:00:00 29.8 9 Sudeste 23 Sudeste 0 -- -- 29
2020-09-08 16:00:00 28.7 10 Sudeste 23 Sur 0 -- -- 30
2020-09-08 15:00:00 27.8 8 Este 32 Sudeste 0 -- -- 31
2020-09-08 14:00:00 27 18 Sudeste 29 Sudeste 0 -- -- 35
2020-09-08 13:00:00 25.6 19 Sudeste 35 Sudeste 0 -- -- 37
2020-09-08 12:00:00 24 12 Sudeste 24 Este 0 -- -- 39
2020-09-08 11:00:00 21.9 8 Este 23 Este 0 -- -- 41
2020-09-08 10:00:00 18.8 8 Nordeste 18 Nordeste 0 -- -- 43
2020-09-08 09:00:00 15.6 10 Nordeste 20 Norte 0 -- -- 50
2020-09-08 08:00:00 15.3 7 Nordeste 24 Nordeste 0 -- -- 49
2020-09-08 07:00:00 15.6 9 Nordeste 21 Nordeste 0 -- -- 48
2020-09-08 06:00:00 16.2 10 Nordeste 21 Nordeste 0 -- -- 46
2020-09-08 05:00:00 17.2 6 Nordeste 17 Nordeste 0 -- -- 44
2020-09-08 04:00:00 18.7 8 Nordeste 23 Nordeste 0 -- -- 40
2020-09-08 03:00:00 20.1 12 Nordeste 26 Norte 0 -- -- 38
2020-09-08 02:00:00 21.1 14 Nordeste 34 Nordeste 0 -- -- 37
2020-09-08 01:00:00 22.2 16 Norte 32 Norte 0 -- -- 34
2020-09-08 00:00:00 23.1 17 Nordeste 35 Norte 0 -- -- 33
2020-09-07 23:00:00 24.1 17 Norte 40 Nordeste 0 -- -- 32
2020-09-07 22:00:00 24.9 16 Norte 35 Norte 0 -- -- 30
2020-09-07 21:00:00 26.2 17 Norte 32 Nordeste 0 -- -- 27
2020-09-07 20:00:00 29 15 Norte 31 Norte 0 -- -- 23
2020-09-07 19:00:00 31.6 11 Nordeste 28 Nordeste 0 -- -- 20
2020-09-07 18:00:00 32.2 16 Nordeste 32 Nordeste 0 -- -- 21
2020-09-07 17:00:00 32.3 14 Nordeste 29 Nordeste 0 -- -- 23
2020-09-07 16:00:00 31.7 12 Nordeste 28 Nordeste 0 -- -- 24
2020-09-07 15:00:00 30.9 12 Nordeste 30 Nordeste 0 -- -- 26
2020-09-07 14:00:00 29.4 12 Nordeste 24 Nordeste 0 -- -- 28
2020-09-07 13:00:00 27.7 12 Nordeste 28 Este 0 -- -- 31
2020-09-07 12:00:00 25.2 15 Nordeste 32 Nordeste 0 -- -- 33
2020-09-07 11:00:00 22.9 17 Nordeste 41 Norte 0 -- -- 36
2020-09-07 10:00:00 20.8 17 Nordeste 39 Nordeste 0 -- -- 39
2020-09-07 09:00:00 19.3 19 Norte 36 Nordeste 0 -- -- 45
2020-09-07 08:00:00 19.3 18 Norte 37 Norte 0 -- -- 44
2020-09-07 07:00:00 20.1 9 Este 34 Norte 0 -- -- 42
2020-09-07 06:00:00 20.6 19 Norte 41 Norte 0 -- -- 41
2020-09-07 05:00:00 21.8 21 Norte 42 Norte 0 -- -- 42
2020-09-07 04:00:00 23.1 14 Nordeste 26 Nordeste 0 -- -- 42
2020-09-07 03:00:00 23 2 Oeste 16 Nordeste 0 -- -- 46
2020-09-07 02:00:00 25.7 5 Norte 21 Norte 0 -- -- 40
2020-09-07 01:00:00 26.5 13 Norte 26 Norte 0 -- -- 38
2020-09-07 00:00:00 27.8 14 Norte 26 Nordeste 0 -- -- 36
2020-09-06 23:00:00 28.7 7 Norte 14 Norte 0 -- -- 32
2020-09-06 22:00:00 30.2 10 Norte 16 Norte 0 -- -- 30
2020-09-06 21:00:00 31.4 9 Norte 18 Noroeste 0 -- -- 28
2020-09-06 20:00:00 34.2 11 Noroeste 23 Sur 0 -- -- 25
2020-09-06 19:00:00 34.7 12 Sur 23 Sur 0 -- -- 26
2020-09-06 18:00:00 34.9 16 Sur 23 Sudoeste 0 -- -- 25
2020-09-06 17:00:00 35.1 14 Sur 21 Sur 0 -- -- 27
2020-09-06 16:00:00 34.8 12 Sudeste 21 Sudeste 0 -- -- 27
2020-09-06 15:00:00 33.5 12 Sudeste 23 Sudeste 0 -- -- 29
2020-09-06 14:00:00 32.9 9 Sudeste 17 Sur 0 -- -- 29
2020-09-06 13:00:00 30.7 8 Este 16 Nordeste 0 -- -- 33
2020-09-06 12:00:00 28.3 10 Nordeste 20 Nordeste 0 -- -- 38
2020-09-06 11:00:00 25.9 9 Nordeste 21 Nordeste 0 -- -- 44
2020-09-06 10:00:00 22.7 10 Nordeste 19 Norte 0 -- -- 52
2020-09-06 09:00:00 19.9 7 Nordeste 18 Nordeste 0 -- -- 59
2020-09-06 08:00:00 19.7 6 Nordeste 16 Nordeste 0 -- -- 59
2020-09-06 07:00:00 21 8 Nordeste 21 Nordeste 0 -- -- 55
2020-09-06 06:00:00 22 12 Nordeste 24 Nordeste 0 -- -- 51
2020-09-06 05:00:00 22.9 12 Norte 21 Norte 0 -- -- 47
2020-09-06 04:00:00 20 0 Calma 5 Nordeste 0 -- -- 50
2020-09-06 03:00:00 21.6 3 Este 16 Sudeste 0 -- -- 47
2020-09-06 02:00:00 24.8 6 Noroeste 17 Nordeste 0 -- -- 38
2020-09-06 01:00:00 22.9 4 Norte 9 Noroeste 0 -- -- 42
2020-09-06 00:00:00 24.2 7 Noroeste 15 Oeste 0 -- -- 39
2020-09-05 23:00:00 25 3 Noroeste 5 Noroeste 0 -- -- 38
2020-09-05 22:00:00 26.4 4 Nordeste 8 Sudeste 0 -- -- 36
2020-09-05 21:00:00 30.2 0 Calma 7 Sur 0 -- -- 31
2020-09-05 20:00:00 34.3 6 Sur 13 Sur 0 -- -- 24
2020-09-05 19:00:00 35.4 9 Sur 18 Sur 0 -- -- 22
2020-09-05 18:00:00 35.6 10 Sur 18 Sur 0 -- -- 21
2020-09-05 17:00:00 35.7 10 Sur 19 Sudoeste 0 -- -- 22
2020-09-05 16:00:00 34.7 11 Sudeste 19 Sudeste 0 -- -- 25
2020-09-05 15:00:00 34 10 Sudeste 22 Sudeste 0 -- -- 28
2020-09-05 14:00:00 32.1 10 Sur 18 Sur 0 -- -- 33
2020-09-05 13:00:00 30 9 Sur 18 Sudeste 0 -- -- 37
2020-09-05 12:00:00 28.6 9 Sudeste 16 Sur 0 -- -- 36
2020-09-05 11:00:00 26.9 8 Sudeste 18 Sudeste 0 -- -- 38
2020-09-05 10:00:00 24.1 13 Sudeste 22 Sudeste 0 -- -- 40
2020-09-05 09:00:00 20 4 Este 10 Este 0 -- -- 50
2020-09-05 08:00:00 18.4 2 Sudeste 9 Este 0 -- -- 53
2020-09-05 07:00:00 20.2 8 Este 13 Este 0 -- -- 48
2020-09-05 06:00:00 21.9 6 Sudeste 11 Nordeste 0 -- -- 46
2020-09-05 05:00:00 24.3 3 Norte 13 Norte 0 -- -- 39
2020-09-05 04:00:00 24.4 6 Norte 14 Norte 0 -- -- 38
2020-09-05 03:00:00 22.1 6 Norte 9 Norte 0 -- -- 43
2020-09-05 02:00:00 24 5 Este 13 Este 0 -- -- 39
2020-09-05 01:00:00 23.6 6 Noroeste 11 Oeste 0 -- -- 38
2020-09-05 00:00:00 22.8 3 Norte 4 Oeste 0 -- -- 41
2020-09-04 23:00:00 25.5 4 Oeste 7 Oeste 0 -- -- 36
2020-09-04 22:00:00 26.6 5 Noroeste 6 Oeste 0 -- -- 36
2020-09-04 21:00:00 30.4 3 Noroeste 6 Oeste 0 -- -- 31
2020-09-04 20:00:00 35.1 2 Sur 8 Sudeste 0 -- -- 23
2020-09-04 19:00:00 35.9 2 Sudeste 12 Oeste 0 -- -- 23
2020-09-04 18:00:00 35.4 5 Sudeste 14 Sudeste 0 -- -- 23
2020-09-04 17:00:00 35.1 8 Sudeste 17 Sur 0 -- -- 24
2020-09-04 16:00:00 34 8 Sur 17 Sudeste 0 -- -- 28
2020-09-04 15:00:00 32.9 8 Sudeste 21 Sur 0 -- -- 30
2020-09-04 14:00:00 31.2 7 Sudeste 22 Sudeste 0 -- -- 34
2020-09-04 13:00:00 29.3 10 Sudeste 27 Sudeste 0 -- -- 38
2020-09-04 12:00:00 27.6 15 Sur 31 Sudeste 0 -- -- 41
2020-09-04 11:00:00 25.6 18 Sudeste 25 Sudeste 0 -- -- 43
2020-09-04 10:00:00 23.5 11 Sudeste 18 Sudeste 0 -- -- 44
2020-09-04 09:00:00 21.8 9 Sur 21 Sur 0 -- -- 43
2020-09-04 08:00:00 16.2 0 Calma 6 Sudeste 0 -- -- 52
2020-09-04 07:00:00 17 4 Norte 9 Oeste 0 -- -- 48
2020-09-04 06:00:00 17.6 4 Noroeste 8 Oeste 0 -- -- 47
2020-09-04 05:00:00 18.6 4 Noroeste 13 Sudeste 0 -- -- 44
2020-09-04 04:00:00 20.4 3 Norte 8 Norte 0 -- -- 37
2020-09-04 03:00:00 20.1 3 Norte 6 Norte 0 -- -- 39
2020-09-04 02:00:00 22.1 4 Sudeste 12 Sudeste 0 -- -- 36
2020-09-04 01:00:00 22.2 5 Norte 7 Norte 0 -- -- 34
2020-09-04 00:00:00 22.3 5 Norte 9 Norte 0 -- -- 34
2020-09-03 23:00:00 23.9 5 Oeste 8 Oeste 0 -- -- 32
2020-09-03 22:00:00 25.6 5 Oeste 6 Oeste 0 -- -- 31
2020-09-03 21:00:00 29.4 6 Noroeste 7 Oeste 0 -- -- 26
2020-09-03 20:00:00 34.3 2 Sur 9 Sur 0 -- -- 20
2020-09-03 19:00:00 35.1 6 Sur 16 Sudeste 0 -- -- 18
2020-09-03 18:00:00 35.4 5 Este 16 Sur 0 -- -- 18
2020-09-03 17:00:00 34.9 9 Sudeste 19 Sudeste 0 -- -- 19
2020-09-03 16:00:00 34.3 9 Sudeste 17 Sur 0 -- -- 20
2020-09-03 15:00:00 33.4 12 Sudeste 19 Sudeste 0 -- -- 23
2020-09-03 14:00:00 32 14 Sudeste 23 Sudeste 0 -- -- 24
2020-09-03 13:00:00 30.3 12 Sudeste 23 Sudeste 0 -- -- 27
2020-09-03 12:00:00 28.7 10 Sudeste 20 Sudeste 0 -- -- 28
2020-09-03 11:00:00 26.3 6 Sudeste 14 Este 0 -- -- 33
2020-09-03 10:00:00 23 4 Este 11 Nordeste 0 -- -- 36
2020-09-03 09:00:00 18.8 6 Sudeste 10 Este 0 -- -- 43
2020-09-03 08:00:00 15.3 4 Norte 8 Sudeste 0 -- -- 51
2020-09-03 07:00:00 17.2 0 Calma 9 Este 0 -- -- 45
2020-09-03 06:00:00 16.8 0 Calma 6 Sudeste 0 -- -- 47
2020-09-03 05:00:00 19.5 3 Sudeste 12 Norte 0 -- -- 42
2020-09-03 04:00:00 20.2 6 Norte 12 Nordeste 0 -- -- 37
2020-09-03 03:00:00 21 9 Sudeste 14 Nordeste 0 -- -- 37
2020-09-03 02:00:00 24.4 8 Norte 17 Norte 0 -- -- 28
2020-09-03 01:00:00 24.4 8 Norte 14 Norte 0 -- -- 28
2020-09-03 00:00:00 24.7 8 Norte 14 Norte 0 -- -- 27
2020-09-02 23:00:00 25.8 9 Norte 19 Noroeste 0 -- -- 27
2020-09-02 22:00:00 24.6 6 Noroeste 8 Oeste 0 -- -- 30
2020-09-02 21:00:00 28.1 6 Oeste 8 Sudoeste 0 -- -- 25
2020-09-02 20:00:00 32.5 4 Sudoeste 11 Sur 0 -- -- 21
2020-09-02 19:00:00 32.6 9 Sur 14 Sur 0 -- -- 20
2020-09-02 18:00:00 33 9 Sur 19 Sudoeste 0 -- -- 20
2020-09-02 17:00:00 32.7 11 Sudeste 21 Sur 0 -- -- 20
2020-09-02 16:00:00 32.4 13 Sudeste 26 Sudeste 0 -- -- 21
2020-09-02 15:00:00 31.4 11 Sudeste 22 Sudeste 0 -- -- 23
2020-09-02 14:00:00 29.8 10 Sudeste 22 Sudeste 0 -- -- 28
2020-09-02 13:00:00 27.8 11 Sur 18 Sur 0 -- -- 28
2020-09-02 12:00:00 26.4 10 Sudeste 19 Sudeste 0 -- -- 30
2020-09-02 11:00:00 24.3 9 Este 18 Sudeste 0 -- -- 35
2020-09-02 10:00:00 21 8 Este 20 Este 0 -- -- 41
2020-09-02 09:00:00 17.7 7 Nordeste 16 Nordeste 0 -- -- 47
2020-09-02 08:00:00 17 5 Este 11 Nordeste 0 -- -- 44
2020-09-02 07:00:00 17.7 5 Nordeste 10 Nordeste 0 -- -- 42
2020-09-02 06:00:00 17.9 6 Sudeste 15 Este 0 -- -- 46
2020-09-02 05:00:00 18.5 6 Norte 12 Norte 0 -- -- 46
2020-09-02 04:00:00 16.1 3 Noroeste 8 Este 0 -- -- 51
2020-09-02 03:00:00 18.9 5 Sur 17 Norte 0 -- -- 44
2020-09-02 02:00:00 23.2 11 Norte 22 Norte 0 -- -- 38
2020-09-02 01:00:00 23.5 12 Norte 19 Norte 0 -- -- 36
2020-09-02 00:00:00 23.4 9 Norte 15 Norte 0 -- -- 33
2020-09-01 23:00:00 24.9 9 Norte 14 Norte 0 -- -- 30
2020-09-01 22:00:00 24.1 8 Norte 10 Norte 0 -- -- 31
2020-09-01 21:00:00 26.2 5 Oeste 7 Sur 0 -- -- 30
2020-09-01 20:00:00 29.9 5 Sudeste 15 Sudeste 0 -- -- 25
2020-09-01 19:00:00 30.5 12 Sur 20 Sudeste 0 -- -- 21
2020-09-01 18:00:00 30.7 14 Sur 26 Sur 0 -- -- 20
2020-09-01 17:00:00 31.1 14 Sudeste 28 Sudeste 0 -- -- 21
2020-09-01 16:00:00 30.2 14 Sudeste 27 Sudeste 0 -- -- 23
2020-09-01 15:00:00 29.4 14 Sur 21 Sudeste 0 -- -- 24
2020-09-01 14:00:00 27.4 6 Sudeste 13 Sur 0 -- -- 26
2020-09-01 13:00:00 26.6 8 Sur 12 Sudeste 0 -- -- 27
2020-09-01 12:00:00 23.5 0 Calma 6 Sudeste 0 -- -- 29
2020-09-01 11:00:00 21.3 5 Sudeste 8 Sur 0 -- -- 34
2020-09-01 10:00:00 19 4 Este 6 Este 0 -- -- 39
2020-09-01 09:00:00 14.7 3 Noroeste 8 Noroeste 0 -- -- 49
2020-09-01 08:00:00 14.7 0 Calma 7 Noroeste 0 -- -- 49
2020-09-01 07:00:00 16.2 4 Oeste 6 Sudeste 0 -- -- 45
2020-09-01 06:00:00 16.9 2 Sudeste 6 Sudeste 0 -- -- 44
2020-09-01 05:00:00 16.9 2 Oeste 8 Oeste 0 -- -- 45
2020-09-01 04:00:00 16.7 0 Calma 8 Sur 0 -- -- 44
2020-09-01 03:00:00 18 4 Sur 9 Sudeste 0 -- -- 40
2020-09-01 02:00:00 19.9 5 Norte 9 Norte 0 -- -- 34
2020-09-01 01:00:00 19.9 5 Norte 11 Nordeste 0 -- -- 35
2020-09-01 00:00:00 18.1 5 Noroeste 8 Oeste 0 -- -- 39
2020-08-31 23:00:00 18.7 6 Noroeste 7 Oeste 0 -- -- 40
2020-08-31 22:00:00 19.7 3 Norte 5 Norte 0 -- -- 38
2020-08-31 21:00:00 23.6 0 Calma 9 Sudeste 0 -- -- 32
2020-08-31 20:00:00 27.5 7 Sudeste 13 Sudeste 0 -- -- 28
2020-08-31 19:00:00 28.5 10 Sudeste 17 Sur 0 -- -- 24
2020-08-31 18:00:00 28.3 9 Sudeste 19 Sudeste 0 -- -- 24
2020-08-31 17:00:00 28.7 10 Sudeste 21 Norte 0 -- -- 24
2020-08-31 16:00:00 27.3 8 Sudoeste 18 Sudeste 0 -- -- 24
2020-08-31 15:00:00 27.3 9 Sudeste 19 Sur 0 -- -- 26
2020-08-31 14:00:00 26 11 Sudeste 26 Sudeste 0 -- -- 28
2020-08-31 13:00:00 24.5 15 Sudeste 28 Sudeste 0 -- -- 31
2020-08-31 12:00:00 24.2 14 Sudeste 28 Sudeste 0 -- -- 32
2020-08-31 11:00:00 21.9 13 Sudeste 27 Este 0 -- -- 37
2020-08-31 10:00:00 18.8 8 Este 16 Este 0 -- -- 39
2020-08-31 09:00:00 15.1 5 Nordeste 9 Nordeste 0 -- -- 45
2020-08-31 08:00:00 13.8 5 Nordeste 11 Nordeste 0 -- -- 47
2020-08-31 07:00:00 14 4 Nordeste 11 Nordeste 0 -- -- 47
2020-08-31 06:00:00 14.5 5 Nordeste 8 Nordeste 0 -- -- 45
2020-08-31 05:00:00 15.1 5 Nordeste 15 Este 0 -- -- 43
2020-08-31 04:00:00 15.2 5 Nordeste 10 Norte 0 -- -- 43
2020-08-31 03:00:00 16.9 4 Este 15 Norte 0 -- -- 39
2020-08-31 02:00:00 17.5 6 Norte 12 Norte 0 -- -- 38
2020-08-31 01:00:00 18.6 5 Este 24 Nordeste 0 -- -- 36
2020-08-31 00:00:00 19.8 11 Norte 24 Norte 0 -- -- 33
2020-08-30 23:00:00 20.5 12 Norte 24 Norte 0 -- -- 32
2020-08-30 22:00:00 21.5 10 Norte 25 Nordeste 0 -- -- 31
2020-08-30 21:00:00 23.6 10 Nordeste 21 Este 0 -- -- 28
2020-08-30 20:00:00 26.1 4 Sur 16 Sur 0 -- -- 28
2020-08-30 19:00:00 26.4 10 Sudoeste 26 Sur 0 -- -- 28
2020-08-30 18:00:00 26.6 12 Sur 25 Sur 0 -- -- 28
2020-08-30 17:00:00 26.6 11 Sudeste 22 Sudeste 0 -- -- 27
2020-08-30 16:00:00 26.2 12 Sur 23 Sudeste 0 -- -- 29
2020-08-30 15:00:00 24.9 9 Sur 22 Sudeste 0 -- -- 31
2020-08-30 14:00:00 24 12 Sur 21 Sudeste 0 -- -- 34
2020-08-30 13:00:00 23.2 10 Sudeste 20 Este 0 -- -- 37
2020-08-30 12:00:00 21.9 8 Sudeste 19 Sudeste 0 -- -- 39
2020-08-30 11:00:00 20.1 8 Este 22 Nordeste 0 -- -- 43
2020-08-30 10:00:00 17.6 12 Nordeste 23 Nordeste 0 -- -- 46
2020-08-30 09:00:00 15.6 11 Norte 22 Norte 0 -- -- 52
2020-08-30 08:00:00 14.7 9 Norte 23 Norte 0 -- -- 54
2020-08-30 07:00:00 15.4 12 Norte 24 Norte 0 -- -- 54
2020-08-30 06:00:00 16 12 Norte 26 Norte 0 -- -- 54
2020-08-30 05:00:00 16.5 10 Norte 27 Norte 0 -- -- 52
2020-08-30 04:00:00 17 10 Norte 31 Norte 0 -- -- 51
2020-08-30 03:00:00 18 12 Norte 33 Nordeste 0 -- -- 47
2020-08-30 02:00:00 19 15 Norte 40 Norte 0 -- -- 44
2020-08-30 01:00:00 19.5 10 Norte 24 Nordeste 0 -- -- 44
2020-08-30 00:00:00 19.9 14 Norte 32 Norte 0 -- -- 41
2020-08-29 23:00:00 21 19 Norte 31 Norte 0 -- -- 40
2020-08-29 22:00:00 21 9 Noroeste 18 Noroeste 0 -- -- 39
2020-08-29 21:00:00 22.6 13 Norte 30 Norte 0 -- -- 36
2020-08-29 20:00:00 24.6 18 Norte 36 Norte 0 -- -- 32
2020-08-29 19:00:00 25.4 23 Norte 39 Norte 0 -- -- 32
2020-08-29 18:00:00 27.5 15 Norte 26 Norte 0 -- -- 26
2020-08-29 17:00:00 26.9 9 Norte 26 Nordeste 0 -- -- 27
2020-08-29 16:00:00 26.4 13 Nordeste 28 Nordeste 0 -- -- 29
2020-08-29 15:00:00 24.8 9 Norte 38 Norte 0 -- -- 32
2020-08-29 14:00:00 24.1 12 Nordeste 45 Norte 0 -- -- 34
2020-08-29 13:00:00 22.7 9 Norte 30 Nordeste 0 -- -- 37
2020-08-29 12:00:00 21.4 9 Nordeste 26 Nordeste 0 -- -- 40
2020-08-29 11:00:00 19.2 12 Nordeste 23 Norte 0 -- -- 45
2020-08-29 10:00:00 17.2 13 Norte 26 Norte 0 -- -- 49
2020-08-29 09:00:00 15.6 10 Norte 25 Norte 0 -- -- 51
2020-08-29 08:00:00 14.9 9 Norte 27 Norte 0 -- -- 52
2020-08-29 07:00:00 15.5 16 Norte 36 Norte 0 -- -- 52
2020-08-29 06:00:00 16 21 Norte 35 Norte 0 -- -- 51
2020-08-29 05:00:00 16.6 20 Norte 45 Norte 0 -- -- 48
2020-08-29 04:00:00 17.3 27 Norte 43 Norte 0 -- -- 45
2020-08-29 03:00:00 18.2 14 Norte 36 Norte 0 -- -- 41
2020-08-29 02:00:00 18.9 24 Norte 50 Noroeste 0 -- -- 46
2020-08-29 01:00:00 20 23 Norte 50 Noroeste 0 -- -- 42
2020-08-29 00:00:00 21.2 22 Norte 40 Norte 0 -- -- 43
2020-08-28 23:00:00 22.9 23 Norte 44 Norte 0 -- -- 39
2020-08-28 22:00:00 24.2 21 Norte 34 Noroeste 0 -- -- 38
2020-08-28 21:00:00 26.2 20 Norte 33 Norte 0 -- -- 31
2020-08-28 20:00:00 28.9 19 Noroeste 37 Noroeste 0 -- -- 23
2020-08-28 19:00:00 30.6 17 Noroeste 35 Noroeste 0 -- -- 20
2020-08-28 18:00:00 31.3 17 Noroeste 33 Noroeste 0 -- -- 18
2020-08-28 17:00:00 31.5 19 Noroeste 33 Oeste 0 -- -- 20
2020-08-28 16:00:00 31 15 Noroeste 34 Norte 0 -- -- 24
2020-08-28 15:00:00 30 15 Noroeste 31 Norte 0 -- -- 29
2020-08-28 14:00:00 28.9 12 Noroeste 33 Noroeste 0 -- -- 34
2020-08-28 13:00:00 28 16 Noroeste 31 Oeste 0 -- -- 34
2020-08-28 12:00:00 26.5 19 Noroeste 32 Noroeste 0 -- -- 40
2020-08-28 11:00:00 25.5 14 Norte 26 Norte 0 -- -- 47
2020-08-28 10:00:00 23.6 5 Nordeste 12 Nordeste 0 -- -- 58
2020-08-28 09:00:00 21.4 4 Norte 13 Norte 0 -- -- 65
2020-08-28 08:00:00 19.6 4 Norte 9 Norte 0 -- -- 66
2020-08-28 07:00:00 20.8 2 Norte 8 Norte 0 -- -- 60
2020-08-28 06:00:00 22.4 4 Norte 13 Norte 0 -- -- 55
2020-08-28 05:00:00 23.6 8 Norte 19 Noroeste 0 -- -- 56
2020-08-28 04:00:00 24.6 9 Norte 20 Norte 0 -- -- 54
2020-08-28 03:00:00 25.3 4 Noroeste 18 Norte 0 -- -- 54
2020-08-28 02:00:00 26 10 Norte 22 Norte 0 -- -- 55
2020-08-28 01:00:00 27 14 Norte 30 Norte 0 -- -- 52
2020-08-28 00:00:00 28.4 19 Norte 32 Norte 0 -- -- 46
2020-08-27 23:00:00 29.8 21 Norte 33 Norte 0 -- -- 41
2020-08-27 22:00:00 31 22 Norte 34 Noroeste 0 -- -- 38
2020-08-27 21:00:00 32.6 23 Norte 35 Noroeste 0 -- -- 36
2020-08-27 20:00:00 35.6 15 Norte 29 Norte 0 -- -- 25
2020-08-27 19:00:00 36.8 12 Noroeste 29 Oeste 0 -- -- 27
2020-08-27 18:00:00 37.1 16 Oeste 30 Oeste 0 -- -- 26
2020-08-27 17:00:00 37 13 Sudoeste 30 Sur 0 -- -- 28
2020-08-27 16:00:00 36.3 18 Sur 27 Sur 0 -- -- 31
2020-08-27 15:00:00 35.8 12 Sur 23 Sur 0 -- -- 32
2020-08-27 14:00:00 34.8 10 Sur 22 Sudeste 0 -- -- 37
2020-08-27 13:00:00 33.4 13 Sudeste 21 Sudeste 0 -- -- 44
2020-08-27 12:00:00 32.3 6 Nordeste 19 Este 0 -- -- 39
2020-08-27 11:00:00 29.1 5 Sur 14 Norte 0 -- -- 47
2020-08-27 10:00:00 26 2 Sudoeste 7 Oeste 0 -- -- 56
2020-08-27 09:00:00 21.4 0 Calma 5 Norte 0 -- -- 68
2020-08-27 08:00:00 19.1 2 Noroeste 4 Oeste 0 -- -- 72
2020-08-27 07:00:00 20.3 2 Oeste 7 Oeste 0 -- -- 66
2020-08-27 06:00:00 21.4 6 Noroeste 8 Oeste 0 -- -- 63
2020-08-27 05:00:00 22.3 5 Noroeste 11 Noroeste 0 -- -- 60
2020-08-27 04:00:00 22.5 5 Noroeste 9 Norte 0 -- -- 59
2020-08-27 03:00:00 22.1 0 Calma 4 Noroeste 0 -- -- 56
2020-08-27 02:00:00 24.8 0 Calma 13 Norte 0 -- -- 49
2020-08-27 01:00:00 26.3 2 Noroeste 10 Norte 0 -- -- 44
2020-08-27 00:00:00 26.8 7 Sudeste 14 Oeste 0 -- -- 36
2020-08-26 23:00:00 27.5 4 Noroeste 11 Norte 0 -- -- 31
2020-08-26 22:00:00 28.1 5 Noroeste 7 Noroeste 0 -- -- 32
2020-08-26 21:00:00 33.4 5 Sudoeste 13 Sur 0 -- -- 27
2020-08-26 20:00:00 35.8 8 Sur 15 Sur 0 -- -- 24
2020-08-26 19:00:00 37.2 11 Sudeste 19 Sudeste 0 -- -- 23
2020-08-26 18:00:00 37.5 15 Sudeste 22 Sur 0 -- -- 21
2020-08-26 17:00:00 37.2 14 Sudeste 23 Sudeste 0 -- -- 21
2020-08-26 16:00:00 37.2 16 Sudeste 25 Sudeste 0 -- -- 21
2020-08-26 15:00:00 35.8 13 Sur 21 Sudeste 0 -- -- 21
2020-08-26 14:00:00 33.7 13 Sudeste 19 Sudeste 0 -- -- 30
2020-08-26 13:00:00 31.5 9 Sudeste 18 Sudeste 0 -- -- 37
2020-08-26 12:00:00 28.7 9 Sudeste 14 Sudeste 0 -- -- 47
2020-08-26 11:00:00 26.4 7 Sudeste 10 Sudeste 0 -- -- 49
2020-08-26 10:00:00 24.6 4 Sudeste 6 Noroeste 0 -- -- 48
2020-08-26 09:00:00 19.8 3 Oeste 8 Noroeste 0 -- -- 61
2020-08-26 08:00:00 17.8 3 Noroeste 6 Oeste 0 -- -- 62
2020-08-26 07:00:00 19.3 5 Noroeste 6 Noroeste 0 -- -- 58
2020-08-26 06:00:00 19.2 4 Noroeste 7 Oeste 0 -- -- 57
2020-08-26 05:00:00 20.5 2 Noroeste 7 Oeste 0 -- -- 52
2020-08-26 04:00:00 22.2 5 Noroeste 9 Oeste 0 -- -- 47
2020-08-26 03:00:00 23.7 5 Noroeste 10 Oeste 0 -- -- 43
2020-08-26 02:00:00 22.2 5 Noroeste 8 Noroeste 0 -- -- 45
2020-08-26 01:00:00 23.4 0 Calma 6 Norte 0 -- -- 40
2020-08-26 00:00:00 27.8 4 Nordeste 15 Noroeste 0 -- -- 31
2020-08-25 23:00:00 30 8 Noroeste 17 Noroeste 0 -- -- 25
2020-08-25 22:00:00 28 6 Oeste 7 Oeste 0 -- -- 33
2020-08-25 21:00:00 33 2 Noroeste 9 Sudeste 0 -- -- 30
2020-08-25 20:00:00 36 5 Sur 14 Sur 0 -- -- 25
2020-08-25 19:00:00 37 9 Sur 19 Sur 0 -- -- 25
2020-08-25 18:00:00 37.1 13 Sur 26 Sudeste 0 -- -- 21
2020-08-25 17:00:00 36.8 16 Sur 31 Sur 0 -- -- 23
2020-08-25 16:00:00 36.5 13 Sur 24 Oeste 0 -- -- 24
2020-08-25 15:00:00 35.1 13 Sur 21 Sur 0 -- -- 26
2020-08-25 14:00:00 34 12 Sudeste 19 Sudeste 0 -- -- 28
2020-08-25 13:00:00 32.1 8 Sudeste 14 Sudeste 0 -- -- 31
2020-08-25 12:00:00 30 6 Sudeste 12 Sudeste 0 -- -- 32
2020-08-25 11:00:00 27.5 5 Sur 9 Sudeste 0 -- -- 36
2020-08-25 10:00:00 23.7 6 Sudeste 9 Sudeste 0 -- -- 47
2020-08-25 09:00:00 19.8 2 Noroeste 5 Noroeste 0 -- -- 59
2020-08-25 08:00:00 17.6 3 Noroeste 6 Oeste 0 -- -- 59
2020-08-25 07:00:00 17.9 5 Oeste 8 Oeste 0 -- -- 56
2020-08-25 06:00:00 18.2 5 Noroeste 7 Oeste 0 -- -- 57
2020-08-25 05:00:00 19.6 3 Oeste 8 Oeste 0 -- -- 52
2020-08-25 04:00:00 20 3 Noroeste 6 Oeste 0 -- -- 50
2020-08-25 03:00:00 22.1 5 Noroeste 8 Oeste 0 -- -- 45
2020-08-25 02:00:00 23.5 5 Noroeste 11 Sur 0 -- -- 40
2020-08-25 01:00:00 25.9 3 Nordeste 14 Nordeste 0 -- -- 37
2020-08-25 00:00:00 26.8 5 Norte 12 Oeste 0 -- -- 34
2020-08-24 23:00:00 26 5 Norte 6 Oeste 0 -- -- 34
2020-08-24 22:00:00 27.8 4 Noroeste 7 Oeste 0 -- -- 33
2020-08-24 21:00:00 31.7 5 Noroeste 7 Noroeste 0 -- -- 32
2020-08-24 20:00:00 33.7 6 Sudoeste 13 Sudoeste 0 -- -- 29
2020-08-24 19:00:00 36.7 6 Sur 14 Sudeste 0 -- -- 24
2020-08-24 18:00:00 36.8 5 Sudoeste 13 Sudeste 0 -- -- 20
2020-08-24 17:00:00 35.9 8 Sudeste 17 Sur 0 -- -- 22
2020-08-24 16:00:00 35.4 9 Sudeste 18 Sudeste 0 -- -- 24
2020-08-24 15:00:00 34.1 8 Sur 19 Sur 0 -- -- 28
2020-08-24 14:00:00 32.9 9 Sur 23 Sudeste 0 -- -- 31
2020-08-24 13:00:00 31.2 13 Sudeste 21 Sur 0 -- -- 28
2020-08-24 12:00:00 30.1 11 Sudeste 22 Sudeste 0 -- -- 28
2020-08-24 11:00:00 27.9 8 Sudeste 16 Sur 0 -- -- 31
2020-08-24 10:00:00 26 8 Nordeste 17 Nordeste 0 -- -- 33
2020-08-24 09:00:00 22 5 Nordeste 13 Este 0 -- -- 39
2020-08-24 08:00:00 22.8 4 Este 19 Norte 0 -- -- 35
2020-08-24 07:00:00 21.7 10 Norte 16 Nordeste 0 -- -- 37
2020-08-24 06:00:00 22.3 5 Este 10 Este 0 -- -- 36
2020-08-24 05:00:00 24.3 5 Este 20 Norte 0 -- -- 32
2020-08-24 04:00:00 25.7 12 Norte 30 Norte 0 -- -- 31
2020-08-24 03:00:00 26.2 15 Norte 31 Norte 0 -- -- 31
2020-08-24 02:00:00 26.3 12 Norte 22 Norte 0 -- -- 31
2020-08-24 01:00:00 26.5 11 Norte 17 Norte 0 -- -- 32
2020-08-24 00:00:00 27.5 10 Norte 17 Norte 0 -- -- 29